Time;durP1;ratioP1;P1;durP2;ratioP2;P2;SDS_P1;SDS_P2;PMS_P1;PMS_P2;Temp;Humidity;BMP_temperature;BMP_pressure;BME280_temperature;BME280_humidity;BME280_pressure;Samples;Min_cycle;Max_cycle;Signal;HPM_P1;HPM_P2
2022/04/12 00:02:43;;;;;;;12.82;7.13;;;23.20;36.10;;;;;;6117010;28;81582;-64
2022/04/12 00:05:44;;;;;;;15.02;8.40;;;23.20;36.10;;;;;;6138059;28;80801;-66
2022/04/12 00:08:44;;;;;;;15.13;8.00;;;23.20;36.10;;;;;;6120785;28;80290;-66
2022/04/12 00:11:45;;;;;;;13.65;7.85;;;23.20;36.20;;;;;;6113120;28;80292;-66
2022/04/12 00:14:45;;;;;;;15.73;7.88;;;23.20;36.20;;;;;;6136078;28;80574;-65
2022/04/12 00:21:05;;;;;;;13.52;7.65;;;23.20;36.30;;;;;;6136135;28;80673;-65
2022/04/12 00:24:06;;;;;;;17.80;8.90;;;23.20;36.50;;;;;;6135203;28;80811;-65
2022/04/12 00:27:06;;;;;;;13.05;7.75;;;23.20;36.30;;;;;;6135271;28;80661;-65
2022/04/12 00:30:07;;;;;;;13.13;7.95;;;23.20;36.40;;;;;;6111866;28;81520;-64
2022/04/12 00:33:07;;;;;;;14.90;8.45;;;23.20;36.50;;;;;;6120019;28;81552;-65
2022/04/12 00:36:09;;;;;;;14.45;8.38;;;23.20;36.50;;;;;;6134985;28;82009;-65
2022/04/12 00:39:10;;;;;;;12.70;8.00;;;23.20;36.40;;;;;;6120531;28;80508;-65
2022/04/12 00:42:11;;;;;;;13.95;8.00;;;23.20;36.50;;;;;;6112202;28;81020;-66
2022/04/12 00:45:12;;;;;;;16.55;8.48;;;23.20;36.40;;;;;;6110927;28;80742;-65
2022/04/12 00:48:12;;;;;;;15.57;8.73;;;23.20;36.40;;;;;;6132199;28;80384;-65
2022/04/12 00:51:13;;;;;;;14.52;8.65;;;23.20;36.40;;;;;;6136027;28;81397;-65
2022/04/12 00:54:13;;;;;;;19.92;9.40;;;23.20;36.60;;;;;;6120860;28;81369;-65
2022/04/12 00:57:14;;;;;;;13.85;7.97;;;23.20;36.50;;;;;;6112162;28;80679;-65
2022/04/12 01:00:16;;;;;;;14.73;8.13;;;23.20;36.50;;;;;;6131168;28;80336;-65
2022/04/12 01:03:16;;;;;;;16.92;8.93;;;23.20;36.50;;;;;;6135294;28;80241;-65
2022/04/12 01:06:18;;;;;;;14.75;7.82;;;23.20;36.50;;;;;;6135683;28;80893;-65
2022/04/12 01:09:18;;;;;;;13.57;7.88;;;23.20;36.50;;;;;;6123918;28;80490;-65
2022/04/12 01:12:21;;;;;;;16.65;8.32;;;23.20;36.50;;;;;;6111171;28;80832;-65
2022/04/12 01:15:22;;;;;;;15.13;8.80;;;23.20;36.50;;;;;;6111246;28;80367;-64
2022/04/12 01:18:22;;;;;;;13.60;8.07;;;23.10;36.40;;;;;;6134582;28;81074;-65
2022/04/12 01:21:23;;;;;;;16.92;8.43;;;23.10;36.60;;;;;;6135546;28;80696;-65
2022/04/12 01:24:23;;;;;;;13.13;7.88;;;23.10;36.40;;;;;;6122258;28;81229;-65
2022/04/12 01:27:24;;;;;;;14.65;8.23;;;23.10;36.50;;;;;;6135329;28;80583;-65
2022/04/12 01:30:24;;;;;;;15.82;8.93;;;23.20;36.50;;;;;;6116175;28;81627;-65
2022/04/12 01:33:25;;;;;;;19.42;9.55;;;23.10;36.40;;;;;;6110952;28;80914;-64
2022/04/12 01:36:25;;;;;;;13.35;7.45;;;23.10;36.40;;;;;;6128958;28;81254;-65
2022/04/12 01:39:26;;;;;;;13.27;7.60;;;23.10;36.60;;;;;;6126831;28;80737;-65
2022/04/12 01:42:26;;;;;;;14.45;8.50;;;23.10;36.40;;;;;;6110471;28;80515;-65
2022/04/12 01:45:27;;;;;;;14.77;8.18;;;23.10;36.40;;;;;;6110654;28;80346;-65
2022/04/12 01:48:28;;;;;;;15.13;8.45;;;23.10;36.40;;;;;;6111278;28;80348;-66
2022/04/12 01:51:28;;;;;;;14.40;7.68;;;23.10;36.40;;;;;;6133611;28;80927;-65
2022/04/12 01:54:29;;;;;;;12.98;7.88;;;23.10;36.40;;;;;;6129311;28;81034;-64
2022/04/12 01:57:29;;;;;;;14.98;8.48;;;23.10;36.40;;;;;;6109469;28;81061;-64
2022/04/12 02:00:30;;;;;;;14.00;8.27;;;23.10;36.40;;;;;;6110509;28;80531;-65
2022/04/12 02:03:31;;;;;;;14.73;7.95;;;23.10;36.40;;;;;;6116962;28;81034;-64
2022/04/12 02:06:31;;;;;;;13.30;8.00;;;23.10;36.40;;;;;;6134235;28;80768;-65
2022/04/12 02:09:32;;;;;;;10.45;6.80;;;23.10;36.30;;;;;;6134092;28;80470;-64
2022/04/12 02:12:32;;;;;;;13.75;7.90;;;23.10;36.50;;;;;;6134121;28;80804;-66
2022/04/12 02:15:33;;;;;;;15.05;8.05;;;23.10;36.70;;;;;;6134641;28;81070;-65
2022/04/12 02:18:34;;;;;;;13.95;7.82;;;23.10;36.40;;;;;;6134692;28;80513;-65
2022/04/12 02:21:34;;;;;;;11.82;7.00;;;23.10;36.50;;;;;;6115741;28;80551;-65
2022/04/12 02:24:35;;;;;;;14.68;7.78;;;23.10;36.80;;;;;;6109330;28;83490;-64
2022/04/12 02:27:35;;;;;;;14.07;7.45;;;23.10;36.60;;;;;;6134437;28;81267;-64
2022/04/12 02:30:36;;;;;;;14.50;7.40;;;23.10;36.60;;;;;;6132514;28;81655;-64
2022/04/12 02:33:37;;;;;;;14.75;8.02;;;23.10;36.60;;;;;;6133645;28;81247;-64
2022/04/12 02:36:37;;;;;;;15.88;8.82;;;23.10;36.70;;;;;;6113798;28;80557;-64
2022/04/12 02:39:38;;;;;;;14.07;8.07;;;23.10;36.70;;;;;;6110289;28;80917;-64
2022/04/12 02:42:38;;;;;;;12.93;7.28;;;23.10;36.80;;;;;;6109973;28;80474;-64
2022/04/12 02:45:39;;;;;;;15.15;8.48;;;23.10;36.80;;;;;;6117124;28;80449;-66
2022/04/12 02:48:39;;;;;;;14.35;8.25;;;23.10;36.70;;;;;;6134358;28;80339;-65
2022/04/12 02:51:40;;;;;;;13.43;7.38;;;23.10;36.80;;;;;;6118570;28;80444;-65
2022/04/12 02:54:40;;;;;;;17.75;8.32;;;23.10;36.70;;;;;;6110038;28;80578;-65
2022/04/12 02:57:41;;;;;;;14.90;7.70;;;23.10;36.70;;;;;;6131305;28;80555;-65
2022/04/12 03:00:42;;;;;;;15.27;7.80;;;23.10;36.60;;;;;;6133183;28;80438;-66
2022/04/12 03:03:42;;;;;;;13.23;8.05;;;23.10;36.70;;;;;;6133425;28;80414;-67
2022/04/12 03:06:43;;;;;;;13.57;7.22;;;23.10;36.60;;;;;;6133491;28;81348;-66
2022/04/12 03:09:43;;;;;;;15.55;8.07;;;23.10;36.70;;;;;;6134092;28;80957;-66
2022/04/12 03:12:44;;;;;;;15.30;8.25;;;23.10;36.70;;;;;;6114068;28;80582;-66
2022/04/12 03:15:44;;;;;;;15.23;8.55;;;23.10;36.90;;;;;;6109464;28;80429;-65
2022/04/12 03:18:45;;;;;;;16.30;8.25;;;23.10;36.80;;;;;;6109080;28;81517;-65
2022/04/12 03:21:45;;;;;;;13.75;7.63;;;23.10;36.90;;;;;;6117495;28;80364;-65
2022/04/12 03:24:46;;;;;;;17.27;8.82;;;23.10;36.80;;;;;;6109167;28;80874;-66
2022/04/12 03:27:47;;;;;;;17.88;8.57;;;23.10;36.80;;;;;;6117516;28;80794;-66
2022/04/12 03:30:47;;;;;;;15.73;8.38;;;23.10;36.80;;;;;;6128566;28;80203;-67
2022/04/12 03:33:48;;;;;;;16.42;7.90;;;23.10;36.80;;;;;;6126948;28;80532;-69
2022/04/12 03:36:48;;;;;;;13.93;8.32;;;23.10;36.60;;;;;;6128183;28;84442;-68
2022/04/12 03:39:50;;;;;;;14.38;7.80;;;23.10;37.20;;;;;;6111490;28;81567;-69
2022/04/12 03:42:50;;;;;;;15.10;7.88;;;23.10;37.30;;;;;;6126451;28;83509;-67
2022/04/12 03:45:51;;;;;;;15.13;7.75;;;23.10;37.20;;;;;;6136672;28;80488;-75
2022/04/12 03:48:51;;;;;;;13.32;7.72;;;23.10;37.30;;;;;;6135161;28;81980;-70
2022/04/12 03:51:52;;;;;;;15.02;8.50;;;23.10;37.20;;;;;;6136326;28;80520;-68
2022/04/12 03:54:52;;;;;;;14.32;8.23;;;23.10;37.40;;;;;;6136688;28;81877;-67
2022/04/12 03:57:53;;;;;;;15.15;8.10;;;23.10;37.30;;;;;;6136686;28;80585;-66
2022/04/12 04:00:54;;;;;;;15.75;8.60;;;23.10;37.10;;;;;;6134567;28;83289;-66
2022/04/12 04:03:54;;;;;;;16.92;9.00;;;23.10;37.00;;;;;;6136704;28;80442;-71
2022/04/12 04:06:55;;;;;;;17.23;8.52;;;23.10;36.90;;;;;;6135982;28;80183;-69
2022/04/12 04:09:55;;;;;;;19.42;9.18;;;23.10;37.50;;;;;;6136537;28;81974;-70
2022/04/12 04:12:56;;;;;;;15.75;8.88;;;23.10;38.00;;;;;;6132436;28;81327;-69
2022/04/12 04:15:56;;;;;;;23.55;9.30;;;23.10;37.80;;;;;;6133662;28;80870;-70
2022/04/12 04:18:57;;;;;;;16.63;8.65;;;23.10;38.30;;;;;;6117471;28;80472;-67
2022/04/12 04:21:57;;;;;;;17.48;8.20;;;23.10;37.60;;;;;;6112279;28;80132;-67
2022/04/12 04:24:58;;;;;;;14.60;8.07;;;23.10;37.60;;;;;;6111920;28;81595;-66
2022/04/12 04:27:58;;;;;;;17.30;8.82;;;23.10;38.30;;;;;;6117768;28;81608;-67
2022/04/12 04:30:59;;;;;;;18.45;8.20;;;23.10;38.40;;;;;;6112212;28;80613;-67
2022/04/12 04:33:59;;;;;;;17.23;8.48;;;23.10;38.20;;;;;;6128840;28;80306;-65
2022/04/12 04:37:00;;;;;;;17.92;9.38;;;23.20;38.50;;;;;;6110870;28;80941;-68
2022/04/12 04:40:00;;;;;;;18.30;8.88;;;23.20;38.50;;;;;;6128863;28;82140;-75
2022/04/12 04:43:02;;;;;;;18.27;9.35;;;23.20;38.70;;;;;;6128303;28;80562;-67
2022/04/12 04:46:02;;;;;;;23.65;8.90;;;23.20;38.40;;;;;;6124399;28;80339;-70
2022/04/12 04:49:03;;;;;;;20.73;9.05;;;23.20;38.60;;;;;;6135549;28;80769;-73
2022/04/12 04:52:03;;;;;;;16.15;8.07;;;23.20;38.50;;;;;;6135145;28;80708;-68
2022/04/12 04:55:04;;;;;;;17.55;8.90;;;23.20;38.60;;;;;;6135781;28;80430;-73
2022/04/12 04:58:04;;;;;;;17.67;8.65;;;23.20;38.80;;;;;;6131451;28;82980;-78
2022/04/12 05:01:05;;;;;;;17.58;8.60;;;23.30;38.60;;;;;;6122922;28;80633;-73
2022/04/12 05:04:05;;;;;;;19.83;10.07;;;23.20;38.50;;;;;;6135007;28;81827;-67
2022/04/12 05:07:06;;;;;;;14.82;8.65;;;23.20;38.40;;;;;;6132800;28;82958;-69
2022/04/12 05:10:06;;;;;;;17.08;8.25;;;23.30;38.50;;;;;;6135564;28;82064;-76
2022/04/12 05:13:07;;;;;;;21.50;8.90;;;23.30;38.70;;;;;;6134342;28;81562;-68
2022/04/12 05:16:07;;;;;;;15.73;8.73;;;23.40;38.60;;;;;;6129057;28;80702;-70
2022/04/12 05:19:08;;;;;;;17.90;9.27;;;23.40;38.60;;;;;;6134356;28;80742;-71
2022/04/12 05:22:09;;;;;;;18.38;9.02;;;23.40;38.90;;;;;;6135063;28;80522;-68
2022/04/12 05:25:09;;;;;;;16.15;9.30;;;23.40;39.00;;;;;;6117202;28;81997;-68
2022/04/12 05:28:10;;;;;;;19.15;8.98;;;23.40;38.90;;;;;;6123531;28;80261;-70
2022/04/12 05:31:10;;;;;;;24.23;8.75;;;23.40;39.00;;;;;;6134663;28;81286;-70
2022/04/12 05:34:11;;;;;;;15.65;8.63;;;23.40;38.90;;;;;;6132260;28;80576;-69
2022/04/12 05:37:11;;;;;;;16.17;7.35;;;23.30;38.80;;;;;;6134127;28;83316;-69
2022/04/12 05:40:12;;;;;;;22.85;9.48;;;23.30;38.60;;;;;;6134160;28;80430;-70
2022/04/12 05:43:12;;;;;;;18.08;8.77;;;23.30;38.50;;;;;;6132857;28;83183;-70
2022/04/12 05:46:13;;;;;;;16.90;8.45;;;23.30;38.30;;;;;;6134644;28;81488;-70
2022/04/12 05:49:14;;;;;;;19.92;9.23;;;23.30;38.20;;;;;;6134598;28;80968;-69
2022/04/12 05:52:14;;;;;;;16.13;9.38;;;23.30;38.10;;;;;;6134760;28;80442;-69
2022/04/12 05:55:15;;;;;;;17.98;9.35;;;23.30;38.00;;;;;;6134180;28;80485;-69
2022/04/12 05:58:15;;;;;;;16.35;9.30;;;23.30;37.90;;;;;;6131968;28;80936;-70
2022/04/12 06:01:16;;;;;;;20.33;8.85;;;23.20;37.70;;;;;;6134462;28;80536;-70
2022/04/12 06:04:17;;;;;;;19.08;9.68;;;23.30;37.70;;;;;;6133829;28;81475;-69
2022/04/12 06:07:17;;;;;;;16.13;9.35;;;23.20;37.60;;;;;;6134461;28;80441;-69
2022/04/12 06:10:18;;;;;;;16.35;8.50;;;23.20;37.50;;;;;;6134471;28;80836;-70
2022/04/12 06:13:18;;;;;;;17.17;9.13;;;23.20;37.40;;;;;;6133827;28;81177;-69
2022/04/12 06:16:19;;;;;;;18.25;9.15;;;23.20;37.30;;;;;;6134809;28;80245;-69
2022/04/12 06:19:19;;;;;;;16.55;8.57;;;23.20;37.20;;;;;;6134334;28;80803;-69
2022/04/12 06:22:23;;;;;;;16.20;9.00;;;23.20;37.10;;;;;;6134098;28;82128;-69
2022/04/12 06:25:29;;;;;;;14.35;8.48;;;23.20;37.10;;;;;;6134166;28;80272;-70
2022/04/12 06:28:32;;;;;;;17.73;8.43;;;23.30;37.00;;;;;;6134159;28;80400;-69
2022/04/12 06:31:33;;;;;;;15.57;8.73;;;23.20;36.90;;;;;;6130358;28;82039;-70
2022/04/12 06:34:33;;;;;;;17.55;8.52;;;23.30;36.90;;;;;;6122590;28;80410;-70
2022/04/12 06:37:34;;;;;;;14.45;7.95;;;23.30;36.80;;;;;;6133892;28;80925;-70
2022/04/12 06:40:35;;;;;;;14.75;7.82;;;23.30;36.70;;;;;;6132548;28;81473;-70
2022/04/12 06:43:35;;;;;;;15.13;7.63;;;23.30;36.60;;;;;;6133744;28;81485;-70
2022/04/12 06:46:36;;;;;;;18.05;7.57;;;23.30;36.60;;;;;;6134185;28;80191;-70
2022/04/12 06:49:36;;;;;;;14.50;7.43;;;23.40;36.60;;;;;;6133946;28;81225;-70
2022/04/12 06:52:37;;;;;;;12.32;7.53;;;23.30;36.50;;;;;;6134111;28;80286;-70
2022/04/12 06:55:37;;;;;;;15.30;7.85;;;23.30;36.50;;;;;;6114970;28;81304;-70
2022/04/12 06:58:38;;;;;;;13.77;7.40;;;23.40;36.40;;;;;;6109650;28;81294;-70
2022/04/12 07:01:41;;;;;;;13.93;7.45;;;23.40;36.40;;;;;;6110192;28;80788;-70
2022/04/12 07:04:41;;;;;;;15.80;7.28;;;23.40;36.30;;;;;;6116944;28;80698;-69
2022/04/12 07:07:42;;;;;;;12.30;7.03;;;23.40;36.30;;;;;;6109990;28;80499;-69
2022/04/12 07:10:45;;;;;;;12.63;6.57;;;23.40;36.20;;;;;;6112748;28;80692;-71
2022/04/12 07:13:45;;;;;;;11.90;7.30;;;23.40;36.20;;;;;;6113766;28;80343;-70
2022/04/12 07:16:46;;;;;;;10.00;6.22;;;23.40;36.20;;;;;;6135968;28;81131;-70
2022/04/12 07:19:46;;;;;;;12.60;7.22;;;23.40;36.30;;;;;;6130709;28;81766;-69
2022/04/12 07:22:47;;;;;;;12.32;6.68;;;23.40;36.30;;;;;;6113850;28;80332;-70
2022/04/12 07:25:47;;;;;;;12.45;6.63;;;23.40;36.40;;;;;;6126965;28;80611;-69
2022/04/12 07:28:48;;;;;;;12.15;6.72;;;23.40;36.40;;;;;;6131057;28;81214;-69
2022/04/12 07:31:48;;;;;;;13.32;6.80;;;23.50;36.50;;;;;;6134167;28;80552;-69
2022/04/12 07:34:49;;;;;;;16.55;7.70;;;23.50;36.40;;;;;;6133085;28;80425;-70
2022/04/12 07:37:51;;;;;;;13.32;7.40;;;23.50;36.40;;;;;;6112974;28;81598;-70
2022/04/12 07:40:53;;;;;;;12.85;7.10;;;23.50;36.40;;;;;;6112143;28;81053;-70
2022/04/12 07:43:54;;;;;;;10.20;6.63;;;23.50;36.30;;;;;;6113233;28;80644;-69
2022/04/12 07:46:54;;;;;;;11.82;6.15;;;23.50;36.30;;;;;;6132315;28;80601;-70
2022/04/12 07:49:55;;;;;;;11.35;6.05;;;23.50;36.30;;;;;;6134352;28;80440;-68
2022/04/12 07:52:55;;;;;;;10.15;6.07;;;23.60;36.40;;;;;;6113378;28;80236;-68
2022/04/12 07:55:56;;;;;;;11.52;6.20;;;23.60;36.40;;;;;;6113147;28;80527;-69
2022/04/12 07:58:56;;;;;;;11.88;6.25;;;23.60;36.40;;;;;;6111988;28;82071;-69
2022/04/12 08:01:57;;;;;;;11.07;6.70;;;23.60;36.30;;;;;;6122729;28;80392;-69
2022/04/12 08:04:57;;;;;;;12.63;6.68;;;23.60;36.20;;;;;;6136470;28;80251;-69
2022/04/12 08:07:58;;;;;;;11.73;6.05;;;23.70;36.20;;;;;;6113077;28;80755;-69
2022/04/12 08:10:58;;;;;;;11.20;6.07;;;23.70;36.10;;;;;;6112763;28;80591;-69
2022/04/12 08:13:59;;;;;;;12.70;6.93;;;23.70;36.20;;;;;;6112574;28;80513;-69
2022/04/12 08:17:00;;;;;;;11.73;6.00;;;23.70;36.00;;;;;;6130038;28;80809;-69
2022/04/12 08:20:00;;;;;;;13.48;6.75;;;23.70;36.10;;;;;;6135567;28;80280;-69
2022/04/12 08:23:02;;;;;;;10.65;5.85;;;23.70;36.00;;;;;;6113145;28;80688;-69
2022/04/12 08:26:03;;;;;;;12.57;6.85;;;23.80;36.10;;;;;;6124273;28;80345;-69
2022/04/12 08:29:03;;;;;;;11.43;6.72;;;23.80;36.00;;;;;;6124171;28;80615;-69
2022/04/12 08:32:04;;;;;;;10.80;6.00;;;23.80;35.90;;;;;;6128818;28;85040;-69
2022/04/12 08:35:04;;;;;;;13.27;6.72;;;23.80;35.90;;;;;;6112127;28;80822;-69
2022/04/12 08:38:05;;;;;;;13.00;6.30;;;23.80;35.70;;;;;;6112040;28;80586;-69
2022/04/12 08:41:05;;;;;;;11.45;6.13;;;23.80;35.70;;;;;;6112020;28;80452;-69
2022/04/12 08:44:06;;;;;;;14.20;6.57;;;23.90;35.80;;;;;;6119856;28;80783;-69
2022/04/12 08:47:07;;;;;;;13.38;7.05;;;23.90;35.70;;;;;;6124600;28;86738;-70
2022/04/12 08:50:07;;;;;;;10.73;6.03;;;23.90;35.60;;;;;;6112167;28;80037;-69
2022/04/12 08:53:09;;;;;;;11.65;5.78;;;23.90;35.50;;;;;;6128924;28;83433;-69
2022/04/12 08:56:09;;;;;;;11.82;6.00;;;23.90;35.40;;;;;;6133948;28;80893;-69
2022/04/12 08:59:10;;;;;;;13.02;6.35;;;23.90;35.40;;;;;;6128298;28;80992;-70
2022/04/12 09:02:10;;;;;;;9.43;5.40;;;23.90;35.40;;;;;;6135423;28;80851;-70
2022/04/12 09:05:11;;;;;;;11.35;5.85;;;23.90;35.30;;;;;;6135306;28;81902;-68
2022/04/12 09:08:11;;;;;;;12.77;6.70;;;24.00;35.40;;;;;;6117351;28;82321;-69
2022/04/12 09:11:12;;;;;;;9.77;5.88;;;24.00;35.60;;;;;;6112501;28;80578;-69
2022/04/12 09:14:13;;;;;;;11.30;5.43;;;24.00;35.30;;;;;;6135140;28;82013;-69
2022/04/12 09:17:14;;;;;;;11.95;5.90;;;24.00;35.20;;;;;;6126673;28;80726;-70
2022/04/12 09:20:14;;;;;;;10.63;5.50;;;24.00;35.70;;;;;;6110664;28;80526;-69
2022/04/12 09:23:15;;;;;;;11.52;5.88;;;24.00;35.10;;;;;;6125053;28;81249;-69
2022/04/12 09:26:16;;;;;;;11.13;5.70;;;24.10;35.10;;;;;;6133438;28;81560;-69
2022/04/12 09:29:17;;;;;;;9.07;5.05;;;24.10;35.00;;;;;;6134437;28;80540;-69
2022/04/12 09:32:17;;;;;;;8.95;5.55;;;24.10;35.00;;;;;;6134909;28;81248;-69
2022/04/12 09:35:18;;;;;;;8.05;5.10;;;24.10;35.00;;;;;;6133925;28;80617;-69
2022/04/12 09:38:18;;;;;;;10.95;5.72;;;24.10;34.80;;;;;;6133270;28;81491;-69
2022/04/12 09:41:19;;;;;;;10.40;5.82;;;24.10;34.90;;;;;;6134896;28;81031;-69
2022/04/12 09:44:19;;;;;;;9.95;5.25;;;24.10;34.80;;;;;;6112553;28;83257;-69
2022/04/12 09:47:20;;;;;;;9.85;4.95;;;24.10;34.80;;;;;;6113542;28;80619;-69
2022/04/12 09:50:21;;;;;;;10.23;5.40;;;24.10;34.70;;;;;;6132857;28;81093;-69
2022/04/12 09:53:21;;;;;;;7.57;4.78;;;24.20;35.40;;;;;;6133590;28;81401;-68
2022/04/12 09:56:22;;;;;;;8.95;5.03;;;24.10;34.60;;;;;;6134645;28;80379;-69
2022/04/12 09:59:22;;;;;;;11.82;5.20;;;24.20;34.70;;;;;;6134085;28;80765;-69
2022/04/12 10:02:24;;;;;;;10.75;5.07;;;24.10;34.50;;;;;;6132203;28;80293;-69
2022/04/12 10:05:25;;;;;;;9.15;5.50;;;24.10;34.60;;;;;;6110287;28;80949;-69
2022/04/12 10:08:25;;;;;;;9.93;4.72;;;24.10;34.60;;;;;;6108810;28;80416;-68
2022/04/12 10:11:26;;;;;;;10.02;5.47;;;24.10;34.60;;;;;;6108503;28;81080;-69
2022/04/12 10:14:26;;;;;;;9.25;5.05;;;24.20;34.60;;;;;;6108325;28;80721;-68
2022/04/12 10:17:27;;;;;;;12.68;5.82;;;24.10;34.60;;;;;;6118844;28;81966;-69
2022/04/12 10:20:27;;;;;;;8.82;5.13;;;24.10;34.60;;;;;;6133508;28;80634;-68
2022/04/12 10:23:29;;;;;;;8.18;4.93;;;24.10;34.50;;;;;;6123932;28;80653;-71
2022/04/12 10:26:29;;;;;;;10.60;5.50;;;24.10;34.50;;;;;;6122567;28;80739;-71
2022/04/12 10:29:30;;;;;;;9.52;4.85;;;24.10;34.40;;;;;;6119262;28;80517;-67
2022/04/12 10:32:30;;;;;;;8.30;5.57;;;24.10;34.40;;;;;;6112095;28;80829;-68
2022/04/12 10:35:31;;;;;;;9.23;5.60;;;24.10;33.60;;;;;;6130481;28;80484;-68
2022/04/12 10:38:32;;;;;;;14.85;7.50;;;24.10;33.30;;;;;;6128751;28;80724;-68
2022/04/12 10:45:16;;;;;;;14.80;7.00;;;24.00;30.40;;;;;;6118334;28;84482;-68
2022/04/12 10:48:17;;;;;;;14.20;6.28;;;24.00;30.10;;;;;;6136081;28;81138;-68
2022/04/12 10:51:17;;;;;;;16.33;6.68;;;23.90;30.20;;;;;;6134385;28;81582;-68
2022/04/12 10:54:18;;;;;;;11.60;5.70;;;23.80;30.30;;;;;;6133299;28;80430;-68
2022/04/12 10:57:18;;;;;;;13.93;6.38;;;23.80;30.20;;;;;;6136144;28;80575;-68
2022/04/12 11:00:19;;;;;;;16.17;6.57;;;23.70;30.00;;;;;;6134002;28;80780;-68
2022/04/12 11:03:19;;;;;;;13.23;5.88;;;23.70;30.00;;;;;;6134095;28;81683;-69
2022/04/12 11:06:20;;;;;;;11.38;5.45;;;23.60;29.80;;;;;;6136008;28;80792;-70
2022/04/12 11:09:22;;;;;;;14.95;5.82;;;23.60;29.80;;;;;;6135422;28;80608;-71
2022/04/12 11:12:23;;;;;;;11.00;5.43;;;23.50;30.00;;;;;;6134639;28;80832;-68
2022/04/12 11:15:23;;;;;;;11.60;5.40;;;23.50;29.70;;;;;;6135726;28;80853;-68
2022/04/12 11:18:24;;;;;;;15.57;5.57;;;23.50;29.50;;;;;;6135607;28;81185;-68
2022/04/12 11:21:24;;;;;;;8.85;5.15;;;23.50;29.10;;;;;;6135409;28;80752;-68
2022/04/12 11:24:25;;;;;;;12.30;4.95;;;23.50;29.50;;;;;;6132807;28;81784;-68
2022/04/12 11:27:26;;;;;;;13.68;5.45;;;23.50;29.70;;;;;;6133717;28;81417;-67
2022/04/12 11:30:26;;;;;;;9.38;5.03;;;23.50;29.40;;;;;;6135431;28;80444;-69
2022/04/12 11:33:27;;;;;;;11.57;5.00;;;23.60;29.70;;;;;;6135294;28;80750;-67
2022/04/12 11:36:27;;;;;;;10.40;4.93;;;23.60;29.40;;;;;;6134029;28;82064;-69
2022/04/12 11:39:28;;;;;;;12.48;5.38;;;23.60;29.20;;;;;;6129476;28;80924;-69
2022/04/12 11:42:29;;;;;;;10.45;5.25;;;23.60;29.30;;;;;;6110195;28;83705;-69
2022/04/12 11:45:29;;;;;;;10.30;5.25;;;23.60;29.30;;;;;;6133642;28;80457;-69
2022/04/12 11:48:30;;;;;;;10.75;5.28;;;23.60;29.50;;;;;;6133603;28;80583;-72
2022/04/12 11:51:30;;;;;;;9.82;5.15;;;23.70;29.90;;;;;;6133258;28;81002;-70
2022/04/12 11:54:31;;;;;;;11.65;5.18;;;23.70;29.30;;;;;;6110809;28;80614;-70
2022/04/12 11:57:32;;;;;;;13.30;5.03;;;23.50;28.90;;;;;;6108354;28;83286;-70
2022/04/12 12:00:32;;;;;;;15.23;5.18;;;23.40;27.90;;;;;;6112921;28;80315;-70
2022/04/12 12:03:33;;;;;;;13.77;5.47;;;23.30;28.00;;;;;;6112736;28;81118;-69
2022/04/12 12:06:33;;;;;;;10.40;4.57;;;23.30;28.10;;;;;;6120257;28;82827;-69
2022/04/12 12:09:37;;;;;;;7.43;4.60;;;23.30;28.00;;;;;;6112520;28;80496;-72
2022/04/12 12:12:37;;;;;;;10.85;4.82;;;23.30;28.20;;;;;;6112434;28;80697;-71
2022/04/12 12:15:38;;;;;;;10.40;4.68;;;23.30;28.00;;;;;;6111925;28;81786;-71
2022/04/12 12:18:38;;;;;;;8.68;4.70;;;23.30;28.20;;;;;;6111852;28;80575;-68
2022/04/12 12:21:39;;;;;;;10.65;5.38;;;23.30;27.90;;;;;;6125159;28;80903;-71
2022/04/12 12:24:40;;;;;;;12.57;6.80;;;23.30;28.10;;;;;;6135647;28;80197;-69
2022/04/12 12:27:41;;;;;;;12.40;5.05;;;23.10;27.70;;;;;;6135314;28;80663;-69
2022/04/12 12:30:41;;;;;;;14.27;5.22;;;23.00;27.80;;;;;;6131232;28;80642;-70
2022/04/12 12:33:43;;;;;;;10.05;5.82;;;23.00;28.10;;;;;;6111842;28;80776;-69
2022/04/12 12:36:43;;;;;;;11.35;5.65;;;23.00;28.00;;;;;;6111475;28;80742;-69
2022/04/12 12:39:44;;;;;;;12.23;5.75;;;22.90;27.90;;;;;;6109929;28;83421;-69
2022/04/12 12:42:44;;;;;;;9.27;5.13;;;22.90;28.00;;;;;;6129622;28;80881;-71
2022/04/12 12:45:45;;;;;;;12.93;5.35;;;22.90;27.60;;;;;;6132776;28;80970;-70
2022/04/12 12:48:45;;;;;;;9.23;4.97;;;22.90;27.90;;;;;;6135134;28;80447;-70
2022/04/12 12:51:46;;;;;;;11.60;4.85;;;22.90;27.90;;;;;;6133072;28;80885;-70
2022/04/12 12:54:46;;;;;;;9.18;4.75;;;23.00;28.10;;;;;;6134245;28;80666;-68
2022/04/12 12:57:47;;;;;;;10.57;5.32;;;23.00;28.10;;;;;;6135071;28;80351;-69
2022/04/12 13:00:47;;;;;;;7.72;4.70;;;23.00;28.00;;;;;;6134785;28;80876;-67
2022/04/12 13:03:48;;;;;;;8.80;4.80;;;23.00;27.90;;;;;;6113115;28;80405;-69
2022/04/12 13:06:48;;;;;;;8.73;4.82;;;23.00;28.00;;;;;;6134776;28;80136;-69
2022/04/12 13:09:49;;;;;;;9.68;5.07;;;22.80;28.20;;;;;;6126628;28;81658;-69
2022/04/12 13:12:50;;;;;;;9.45;5.18;;;22.90;28.20;;;;;;6114499;28;80654;-71
2022/04/12 13:15:50;;;;;;;12.50;6.03;;;23.00;28.20;;;;;;6111110;28;81151;-70
2022/04/12 13:18:51;;;;;;;14.57;6.25;;;22.90;28.60;;;;;;6132534;28;80715;-69
2022/04/12 13:21:51;;;;;;;12.90;5.65;;;22.90;28.60;;;;;;6134448;28;80547;-69
2022/04/12 13:24:52;;;;;;;9.23;5.70;;;23.00;28.70;;;;;;6134360;28;81815;-69
2022/04/12 13:27:52;;;;;;;12.48;6.55;;;22.90;28.70;;;;;;6134681;28;80612;-69
2022/04/12 13:30:54;;;;;;;11.75;5.88;;;22.90;28.80;;;;;;6135049;28;80626;-67
2022/04/12 13:33:54;;;;;;;14.98;6.68;;;22.80;29.30;;;;;;6134308;28;80321;-71
2022/04/12 13:36:55;;;;;;;11.43;5.90;;;22.90;28.90;;;;;;6134383;28;80514;-68
2022/04/12 13:39:55;;;;;;;9.98;5.82;;;22.80;28.70;;;;;;6134195;28;81482;-73
2022/04/12 13:42:56;;;;;;;12.32;5.63;;;22.90;28.80;;;;;;6134161;28;80521;-68
2022/04/12 13:45:56;;;;;;;8.15;4.95;;;22.80;28.70;;;;;;6132767;28;81055;-71
2022/04/12 13:48:57;;;;;;;12.02;5.47;;;22.90;29.00;;;;;;6134497;28;80874;-74
2022/04/12 13:51:57;;;;;;;13.23;5.80;;;22.90;28.90;;;;;;6124588;28;80594;-69
2022/04/12 13:54:59;;;;;;;9.57;5.35;;;23.00;29.10;;;;;;6135015;28;80434;-73
2022/04/12 13:57:59;;;;;;;11.50;5.15;;;23.10;29.10;;;;;;6126952;28;80914;-74
2022/04/12 14:01:00;;;;;;;14.75;5.85;;;23.20;29.10;;;;;;6132079;28;80285;-72
2022/04/12 14:04:01;;;;;;;11.82;5.68;;;23.20;29.10;;;;;;6118257;28;80470;-70
2022/04/12 14:07:01;;;;;;;9.40;5.03;;;23.20;29.20;;;;;;6109969;28;81324;-71
2022/04/12 14:10:02;;;;;;;11.18;5.93;;;23.20;29.20;;;;;;6133375;28;81890;-71
2022/04/12 14:13:02;;;;;;;12.10;5.00;;;23.30;29.70;;;;;;6134487;28;80405;-71
2022/04/12 14:16:03;;;;;;;9.90;5.53;;;23.40;29.70;;;;;;6134666;28;81047;-71
2022/04/12 14:19:04;;;;;;;10.27;4.78;;;23.40;29.80;;;;;;6120225;28;82881;-68
2022/04/12 14:22:07;;;;;;;8.25;4.97;;;23.40;30.10;;;;;;6134145;28;80341;-80
2022/04/12 14:25:07;;;;;;;11.10;5.25;;;23.50;30.20;;;;;;6112304;28;80877;-73
2022/04/12 14:28:10;;;;;;;8.65;4.65;;;23.50;30.00;;;;;;6109707;28;81822;-70
2022/04/12 14:31:11;;;;;;;10.25;5.60;;;23.60;30.30;;;;;;6121356;28;80202;-72
2022/04/12 14:34:12;;;;;;;8.80;4.80;;;23.50;30.10;;;;;;6134154;28;81323;-74
2022/04/12 14:37:12;;;;;;;10.68;5.63;;;23.60;30.30;;;;;;6134657;28;80386;-72
2022/04/12 14:40:13;;;;;;;12.48;4.97;;;23.60;30.10;;;;;;6135021;28;80093;-72
2022/04/12 14:43:13;;;;;;;11.25;5.93;;;23.60;30.10;;;;;;6132126;28;80235;-70
2022/04/12 14:46:14;;;;;;;22.13;5.65;;;23.60;30.10;;;;;;6110994;28;80808;-71
2022/04/12 14:49:15;;;;;;;12.25;5.38;;;23.60;30.30;;;;;;6110359;28;80479;-73
2022/04/12 14:52:17;;;;;;;10.32;5.03;;;23.60;30.40;;;;;;6111294;28;80581;-73
2022/04/12 14:55:18;;;;;;;10.23;5.93;;;23.60;30.50;;;;;;6128369;28;80361;-72
2022/04/12 14:58:18;;;;;;;15.10;6.13;;;23.60;31.00;;;;;;6128984;28;83400;-76
2022/04/12 15:01:19;;;;;;;9.43;5.43;;;23.60;31.00;;;;;;6114765;28;81484;-74
2022/04/12 15:04:20;;;;;;;12.88;5.78;;;23.60;31.00;;;;;;6124618;28;81421;-71
2022/04/12 15:07:20;;;;;;;10.60;5.78;;;23.60;31.00;;;;;;6114620;28;80832;-69
2022/04/12 15:10:21;;;;;;;10.40;5.03;;;23.60;30.60;;;;;;6110722;28;80510;-70
2022/04/12 15:13:21;;;;;;;9.10;5.63;;;23.60;30.60;;;;;;6110478;28;80529;-69
2022/04/12 15:16:22;;;;;;;14.68;5.78;;;23.60;30.60;;;;;;6116945;28;80334;-68
2022/04/12 15:19:22;;;;;;;13.18;6.38;;;23.50;30.50;;;;;;6127291;28;81348;-68
2022/04/12 15:22:23;;;;;;;10.98;5.60;;;23.50;30.40;;;;;;6118140;28;81774;-67
2022/04/12 15:25:24;;;;;;;11.93;5.60;;;23.40;30.20;;;;;;6126663;28;80829;-67
2022/04/12 15:28:24;;;;;;;10.93;5.95;;;23.40;30.30;;;;;;6110014;28;80276;-68
2022/04/12 15:31:25;;;;;;;9.18;5.57;;;23.30;30.40;;;;;;6129126;28;82003;-68
2022/04/12 15:34:25;;;;;;;12.25;5.32;;;23.30;30.40;;;;;;6129901;28;81756;-68
2022/04/12 15:37:26;;;;;;;12.80;6.07;;;23.20;30.50;;;;;;6127112;28;81589;-74